Map

Track Data

SID SEASON NUMBER BASIN SUBBASIN NAME ISO_TIME NATURE LAT LON WMO_WIND WMO_PRES WMO_AGENCY TRACK_TYPE DIST2LAND LANDFALL IFLAG USA_AGENCY USA_ATCF_ID USA_LAT USA_LON USA_RECORD USA_STATUS USA_WIND USA_PRES USA_SSHS USA_R34_NE USA_R34_SE USA_R34_SW USA_R34_NW USA_R50_NE USA_R50_SE USA_R50_SW USA_R50_NW USA_R64_NE USA_R64_SE USA_R64_SW USA_R64_NW USA_POCI USA_ROCI USA_RMW USA_EYE TOKYO_LAT TOKYO_LON TOKYO_GRADE TOKYO_WIND TOKYO_PRES TOKYO_R50_DIR TOKYO_R50_LONG TOKYO_R50_SHORT TOKYO_R30_DIR TOKYO_R30_LONG TOKYO_R30_SHORT TOKYO_LAND CMA_LAT CMA_LON CMA_CAT CMA_WIND CMA_PRES HKO_LAT HKO_LON HKO_CAT HKO_WIND HKO_PRES NEWDELHI_LAT NEWDELHI_LON NEWDELHI_GRADE NEWDELHI_WIND NEWDELHI_PRES NEWDELHI_CI NEWDELHI_DP NEWDELHI_POCI REUNION_LAT REUNION_LON REUNION_TYPE REUNION_WIND REUNION_PRES REUNION_TNUM REUNION_CI REUNION_RMW REUNION_R34_NE REUNION_R34_SE REUNION_R34_SW REUNION_R34_NW REUNION_R50_NE REUNION_R50_SE REUNION_R50_SW REUNION_R50_NW REUNION_R64_NE REUNION_R64_SE REUNION_R64_SW REUNION_R64_NW BOM_LAT BOM_LON BOM_TYPE BOM_WIND BOM_PRES BOM_TNUM BOM_CI BOM_RMW BOM_R34_NE BOM_R34_SE BOM_R34_SW BOM_R34_NW BOM_R50_NE BOM_R50_SE BOM_R50_SW BOM_R50_NW BOM_R64_NE BOM_R64_SE BOM_R64_SW BOM_R64_NW BOM_ROCI BOM_POCI BOM_EYE BOM_POS_METHOD BOM_PRES_METHOD NADI_LAT NADI_LON NADI_CAT NADI_WIND NADI_PRES WELLINGTON_LAT WELLINGTON_LON WELLINGTON_WIND WELLINGTON_PRES DS824_LAT DS824_LON DS824_STAGE DS824_WIND DS824_PRES TD9636_LAT TD9636_LON TD9636_STAGE TD9636_WIND TD9636_PRES TD9635_LAT TD9635_LON TD9635_WIND TD9635_PRES TD9635_ROCI NEUMANN_LAT NEUMANN_LON NEUMANN_CLASS NEUMANN_WIND NEUMANN_PRES MLC_LAT MLC_LON MLC_CLASS MLC_WIND MLC_PRES USA_GUST BOM_GUST BOM_GUST_PER REUNION_GUST REUNION_GUST_PER USA_SEAHGT USA_SEARAD_NE USA_SEARAD_SE USA_SEARAD_SW USA_SEARAD_NW STORM_SPEED STORM_DIR
1900046S10049 1900 5 SI MM NOT_NAMED 1900-02-14 18:00:00 NR -10.2000 49.1000 main 213 202 __________O___ -1 -10.2000 49.1000 7 5 239
1900046S10049 1900 5 SI MM NOT_NAMED 1900-02-14 21:00:00 NR -10.3230 48.8919 main 204 187 __________P___ -1 -10.3230 48.8919 7 5 239
1900046S10049 1900 5 SI MM NOT_NAMED 1900-02-15 00:00:00 NR -10.4668 48.6471 main 190 184 __________P___ -1 -10.4668 48.6471 7 6 239
1900046S10049 1900 5 SI MM NOT_NAMED 1900-02-15 03:00:00 NR -10.6523 48.3288 main 184 181 __________P___ -1 -10.6523 48.3288 7 9 239
1900046S10049 1900 5 SI MM NOT_NAMED 1900-02-15 06:00:00 NR -10.9000 47.9000 main 195 195 __________O___ -1 -10.9000 47.9000 7 11 239
1900046S10049 1900 5 SI MM NOT_NAMED 1900-02-15 09:00:00 NR -11.2254 47.3385 main 218 211 __________P___ -1 -11.2254 47.3385 7 14 239
1900046S10049 1900 5 SI MM NOT_NAMED 1900-02-15 12:00:00 NR -11.6235 46.6824 main 249 249 __________P___ -1 -11.6235 46.6824 7 16 237
1900046S10049 1900 5 SI MM NOT_NAMED 1900-02-15 15:00:00 NR -12.0847 45.9850 main 273 273 __________P___ -1 -12.0847 45.9850 7 17 234
1900046S10049 1900 5 SI MM NOT_NAMED 1900-02-15 18:00:00 NR -12.6000 45.3000 main 307 307 __________O___ -1 -12.6000 45.3000 7 17 231
1900046S10049 1900 5 SI MM NOT_NAMED 1900-02-15 21:00:00 NR -13.1458 44.6393 main 329 279 __________P___ -1 -13.1458 44.6393 7 17 228
1900046S10049 1900 5 SI MM NOT_NAMED 1900-02-16 00:00:00 NR -13.7405 44.0089 main 283 243 __________P___ -1 -13.7405 44.0089 7 17 223
1900046S10049 1900 5 SI MM NOT_NAMED 1900-02-16 03:00:00 NR -14.3648 43.4488 main 238 208 __________P___ -1 -14.3648 43.4488 7 16 218
1900046S10049 1900 5 SI MM NOT_NAMED 1900-02-16 06:00:00 NR -15.0000 43.0000 main 208 197 __________O___ -1 -15.0000 43.0000 7 15 212
1900046S10049 1900 5 SI MM NOT_NAMED 1900-02-16 09:00:00 NR -15.6169 42.6448 main 204 200 __________P___ -1 -15.6169 42.6448 7 14 205
1900046S10049 1900 5 SI MM NOT_NAMED 1900-02-16 12:00:00 NR -16.2414 42.4103 main 212 187 __________P___ -1 -16.2414 42.4103 7 13 195
1900046S10049 1900 5 SI MM NOT_NAMED 1900-02-16 15:00:00 NR -16.8702 42.2955 main 182 169 __________P___ -1 -16.8702 42.2955 7 13 185
1900046S10049 1900 5 SI MM NOT_NAMED 1900-02-16 18:00:00 NR -17.5000 42.3000 main 169 169 __________O___ -1 -17.5000 42.3000 7 13 178
1900046S10049 1900 5 SI MM NOT_NAMED 1900-02-16 21:00:00 NR -18.1446 42.3490 main 179 159 __________P___ -1 -18.1446 42.3490 7 13 171
1900046S10049 1900 5 SI MM NOT_NAMED 1900-02-17 00:00:00 NR -18.7863 42.5178 main 164 148 __________P___ -1 -18.7863 42.5178 7 13 161
1900046S10049 1900 5 SI MM NOT_NAMED 1900-02-17 03:00:00 NR -19.4099 42.8028 main 150 109 __________P___ -1 -19.4099 42.8028 7 14 152
1900046S10049 1900 5 SI MM NOT_NAMED 1900-02-17 06:00:00 NR -20.0000 43.2000 main 109 38 __________O___ -1 -20.0000 43.2000 7 14 144
1900046S10049 1900 5 SI MM NOT_NAMED 1900-02-17 09:00:00 NR -20.5772 43.6907 main 30 0 __________P___ -1 -20.5772 43.6907 7 15 138
1900046S10049 1900 5 SI MM NOT_NAMED 1900-02-17 12:00:00 NR -21.1134 44.2855 main 0 0 __________P___ -1 -21.1134 44.2855 7 15 131
1900046S10049 1900 5 SI MM NOT_NAMED 1900-02-17 15:00:00 NR -21.5927 44.9378 main 0 0 __________P___ -1 -21.5927 44.9378 7 15 126
1900046S10049 1900 5 SI MM NOT_NAMED 1900-02-17 18:00:00 NR -22.0000 45.6000 main 0 0 __________O___ -1 -22.0000 45.6000 7 14 121
1900046S10049 1900 5 SI MM NOT_NAMED 1900-02-17 21:00:00 NR -22.3266 46.2335 main 0 0 __________P___ -1 -22.3266 46.2335 7 13 117
1900046S10049 1900 5 SI MM NOT_NAMED 1900-02-18 00:00:00 NR -22.5881 46.8380 main 0 0 __________P___ -1 -22.5881 46.8380 7 12 114
1900046S10049 1900 5 SI MM NOT_NAMED 1900-02-18 03:00:00 NR -22.8055 47.4235 main 0 0 __________P___ -1 -22.8055 47.4235 7 11 111
1900046S10049 1900 5 SI MM NOT_NAMED 1900-02-18 06:00:00 NR -23.0000 48.0000 main 23 __________O___ -1 -23.0000 48.0000 7 11 110

About IBTrACS Database

This database is a web-friendly format of International Best Track Archive for Climate Stewardship (IBTrACS), a global best track data archive curated by NOAA dating back to 1842.

Updated: 2021-12-03